EGBS weather

Shobdon Aerodrome
Shobdon, England, United Kingdom

Public forecast

Using degrees Celsius for public forecast. Weather courtesy of forecast.io.

Closest aviation weather report (METAR) to Shobdon Aerodrome

Closest report is DCAE Cosford Air Base, 31.9 nm (59.0 km) NE. Retrieved 2019/10/19 13:50 UTC (45 minutes ago):

EGWC 191350Z 25005KT 9999 FEW012 SCT020 13/06 Q0999 RMK WHT

Closest aviation forecast (TAF) to Shobdon Aerodrome

Forecast is more than 12 hours old.

Closest forecast is RAF Shawbury, 34.3 nm (63.5 km) NNE. Retrieved 2010/10/20 21:33 UTC (9 years ago):

TAF TAF EGOS 201947Z 2021/2124 CNL